Time;durP1;ratioP1;P1;durP2;ratioP2;P2;SDS_P1;SDS_P2;PMS_P1;PMS_P2;Temp;Humidity;BMP_temperature;BMP_pressure;BME280_temperature;BME280_humidity;BME280_pressure;Samples;Min_cycle;Max_cycle;Signal;HPM_P1;HPM_P2
2023/01/22 10:22:06;;;;;;;12.20;9.50;;;1.80;99.90;;;;;;4974018;28;20475;-82
2023/01/22 10:24:33;;;;;;;13.43;9.07;;;1.90;99.90;;;;;;4976322;28;20451;-81
2023/01/22 10:27:10;;;;;;;14.17;10.07;;;1.90;99.90;;;;;;4976232;28;20448;-82
2023/01/22 10:29:40;;;;;;;15.13;9.80;;;1.80;99.90;;;;;;4976527;28;20478;-81
2023/01/22 10:32:20;;;;;;;11.07;9.83;;;1.80;99.90;;;;;;4975867;28;20496;-80
2023/01/22 11:12:52;;;;;;;20.70;17.60;;;1.70;99.90;;;;;;4981769;28;20433;-86
2023/01/22 11:22:53;;;;;;;19.70;14.40;;;2.00;99.90;;;;;;4978048;28;20519;-79
2023/01/22 11:31:46;;;;;;;17.77;13.43;;;2.10;99.90;;;;;;4978412;28;20459;-79
2023/01/22 11:38:42;;;;;;;20.43;14.83;;;2.20;99.90;;;;;;4981674;28;20451;-78
2023/01/22 11:48:17;;;;;;;16.90;13.30;;;1.90;99.90;;;;;;4960320;28;20454;-80
2023/01/22 11:51:05;;;;;;;19.10;13.30;;;2.20;99.90;;;;;;4960521;29;20455;-79
2023/01/22 11:54:02;;;;;;;17.30;12.40;;;2.10;99.90;;;;;;4961525;28;20556;-79
2023/01/22 11:57:07;;;;;;;19.50;12.83;;;2.00;99.90;;;;;;4961337;28;20466;-80
2023/01/22 12:00:03;;;;;;;14.70;12.03;;;2.10;99.90;;;;;;4959635;28;20451;-80
2023/01/22 12:03:17;;;;;;;15.90;12.60;;;1.80;99.90;;;;;;4961232;28;20847;-80
2023/01/22 12:07:10;;;;;;;16.40;12.17;;;2.10;99.90;;;;;;4944339;28;20440;-80
2023/01/22 12:09:52;;;;;;;16.90;12.03;;;2.00;99.90;;;;;;4961477;29;20473;-80
2023/01/22 12:12:42;;;;;;;19.88;16.63;;;2.00;99.90;;;;;;4962179;28;20461;-80
2023/01/22 12:19:09;;;;;;;19.00;13.20;;;2.40;99.90;;;;;;4963640;28;20527;-80
2023/01/22 12:25:24;;;;;;;18.33;12.00;;;2.40;99.90;;;;;;4966886;28;20567;-80
2023/01/22 12:31:16;;;;;;;15.43;11.43;;;2.40;99.90;;;;;;4968644;28;20448;-80
2023/01/22 12:34:07;;;;;;;17.83;12.10;;;2.40;99.90;;;;;;4965153;28;20514;-80
2023/01/22 12:36:57;;;;;;;15.30;12.00;;;2.30;99.90;;;;;;4965623;28;20459;-81
2023/01/22 12:39:43;;;;;;;14.70;11.80;;;2.30;99.90;;;;;;4971233;28;20416;-81
2023/01/22 12:42:26;;;;;;;14.80;11.73;;;2.10;99.90;;;;;;4966527;28;20852;-81
2023/01/22 13:12:58;;;;;;;16.30;12.43;;;2.40;99.90;;;;;;4938748;29;20500;-81
2023/01/22 13:15:32;;;;;;;18.57;12.67;;;2.30;99.90;;;;;;4936404;29;20461;-81
2023/01/22 13:18:30;;;;;;;18.67;12.40;;;2.40;99.90;;;;;;4936923;29;20458;-82
2023/01/22 13:21:48;;;;;;;15.47;11.70;;;2.30;99.90;;;;;;4956194;29;20445;-81
2023/01/22 13:24:24;;;;;;;17.93;11.70;;;2.30;99.90;;;;;;4953533;29;20460;-82
2023/01/22 13:27:05;;;;;;;16.20;11.83;;;2.50;99.90;;;;;;4952527;29;20510;-82
2023/01/22 13:30:19;;;;;;;13.47;10.70;;;2.50;99.90;;;;;;4955597;28;20449;-82
2023/01/22 13:32:52;;;;;;;16.90;12.23;;;2.60;99.90;;;;;;4955095;28;20502;-82
2023/01/22 13:35:34;;;;;;;14.07;11.53;;;2.50;99.90;;;;;;4951272;29;20460;-82
2023/01/22 13:41:27;;;;;;;13.47;10.93;;;2.40;99.90;;;;;;4955729;28;20433;-82
2023/01/22 13:43:57;;;;;;;16.30;11.57;;;2.20;99.90;;;;;;4951399;29;20465;-81
2023/01/22 13:49:48;;;;;;;17.90;11.10;;;2.20;99.90;;;;;;4955927;29;20452;-82
2023/01/22 13:55:28;;;;;;;15.50;12.20;;;2.40;99.90;;;;;;4957986;29;20441;-82
2023/01/22 13:58:06;;;;;;;14.40;11.57;;;2.40;99.90;;;;;;4954830;29;20455;-82
2023/01/22 14:00:41;;;;;;;17.70;11.13;;;2.70;99.90;;;;;;4952779;29;20522;-83
2023/01/22 14:03:26;;;;;;;14.13;10.77;;;2.50;99.90;;;;;;4954360;29;20463;-83
2023/01/22 14:06:13;;;;;;;12.47;9.87;;;2.40;99.90;;;;;;4954824;28;20476;-83
2023/01/22 14:08:51;;;;;;;15.23;10.70;;;2.30;99.90;;;;;;4959518;28;20463;-83
2023/01/22 14:11:21;;;;;;;13.23;10.07;;;2.50;99.90;;;;;;4953945;29;20452;-83
2023/01/22 14:14:02;;;;;;;14.53;10.20;;;2.50;99.90;;;;;;4954864;28;20474;-83
2023/01/22 14:17:03;;;;;;;15.40;11.07;;;2.40;99.90;;;;;;4957314;29;20440;-84
2023/01/22 14:19:51;;;;;;;13.80;10.60;;;2.40;99.90;;;;;;4958941;28;20452;-83
2023/01/22 14:22:24;;;;;;;12.90;9.77;;;2.50;99.90;;;;;;4953951;29;20460;-83
2023/01/22 14:24:52;;;;;;;11.80;10.43;;;2.50;99.90;;;;;;4965785;28;20455;-82
2023/01/22 14:27:59;;;;;;;15.63;10.90;;;2.70;99.90;;;;;;4977003;28;20463;-85
2023/01/22 14:30:35;;;;;;;13.27;10.67;;;2.60;99.90;;;;;;4976208;28;20463;-80
2023/01/22 14:33:05;;;;;;;14.27;10.60;;;2.50;99.90;;;;;;4977656;29;20486;-85
2023/01/22 14:36:14;;;;;;;11.93;9.83;;;2.50;99.90;;;;;;4980789;28;20483;-85
2023/01/22 14:45:15;;;;;;;12.60;9.73;;;2.20;99.90;;;;;;5040850;23;20490;-85
2023/01/22 14:48:41;;;;;;;11.30;9.57;;;2.20;99.90;;;;;;4981966;28;20452;-83
2023/01/22 14:54:16;;;;;;;14.53;9.40;;;2.40;99.90;;;;;;4982360;28;20467;-84
2023/01/22 14:59:56;;;;;;;10.47;9.47;;;2.40;99.90;;;;;;4980670;28;20424;-84
2023/01/22 15:02:46;;;;;;;12.60;9.77;;;2.50;99.90;;;;;;4979996;28;20523;-84
2023/01/22 15:05:44;;;;;;;13.43;11.10;;;2.40;99.90;;;;;;4981121;28;20443;-84
2023/01/22 15:15:14;;;;;;;15.83;10.77;;;2.60;99.90;;;;;;4982606;28;20437;-84
2023/01/22 15:17:49;;;;;;;15.70;10.80;;;2.40;99.90;;;;;;4975567;29;20452;-85
2023/01/22 15:20:30;;;;;;;12.83;10.50;;;2.50;99.90;;;;;;4982214;28;20444;-84
2023/01/22 15:23:21;;;;;;;14.57;10.70;;;2.50;99.90;;;;;;4982286;28;20436;-83
2023/01/22 15:52:35;;;;;;;18.03;12.83;;;2.40;99.90;;;;;;4979526;28;20432;-86
2023/01/22 15:55:29;;;;;;;21.17;13.67;;;2.30;99.90;;;;;;4961393;29;20444;-86
2023/01/22 16:20:08;;;;;;;19.30;13.70;;;2.50;99.90;;;;;;4942123;29;20474;-86
2023/01/22 16:29:38;;;;;;;13.93;12.23;;;2.50;99.90;;;;;;4922000;29;20446;-86
2023/01/22 17:27:51;;;;;;;13.30;11.03;;;3.00;99.90;;;;;;5596183;23;20498;-94
2023/01/22 17:30:44;;;;;;;17.70;11.97;;;3.10;99.90;;;;;;4988542;28;20459;-93
2023/01/22 17:33:13;;;;;;;13.80;11.17;;;3.00;99.90;;;;;;4996884;23;20522;-91
2023/01/22 17:38:23;;;;;;;16.10;11.37;;;3.00;99.90;;;;;;4964135;28;20447;-92
2023/01/22 17:40:53;;;;;;;15.33;12.30;;;3.20;99.90;;;;;;4966970;28;20571;-92
2023/01/22 17:43:25;;;;;;;18.53;12.53;;;3.10;99.90;;;;;;4963331;28;20472;-93
2023/01/22 17:46:05;;;;;;;12.83;11.07;;;2.90;99.90;;;;;;4969816;28;20452;-92
2023/01/22 17:48:38;;;;;;;15.33;12.03;;;3.00;99.90;;;;;;4966790;28;20468;-92
2023/01/22 17:51:10;;;;;;;12.97;10.93;;;3.00;99.90;;;;;;4963114;28;20440;-93
2023/01/22 18:29:08;;;;;;;17.70;13.90;;;2.50;99.90;;;;;;3750200;23;20812;-82
2023/01/22 18:33:00;;;;;;;16.70;13.13;;;2.70;99.90;;;;;;4997143;28;20457;-82
2023/01/22 18:38:41;;;;;;;20.23;13.37;;;2.50;99.90;;;;;;4997942;28;20470;-82
2023/01/22 18:41:12;;;;;;;20.80;14.17;;;2.40;99.90;;;;;;4980367;28;20466;-82
2023/01/22 18:43:43;;;;;;;19.30;14.53;;;2.20;99.90;;;;;;4998550;28;20462;-83
2023/01/22 18:46:16;;;;;;;21.03;13.73;;;2.20;99.90;;;;;;4998146;28;20439;-83
2023/01/22 18:48:54;;;;;;;18.77;14.77;;;2.40;99.90;;;;;;4998283;28;20510;-83
2023/01/22 18:51:25;;;;;;;23.37;15.00;;;2.30;99.90;;;;;;4997587;28;20431;-82
2023/01/22 18:56:37;;;;;;;20.83;13.17;;;2.20;99.90;;;;;;4994014;28;20454;-82
2023/01/22 18:59:27;;;;;;;19.40;12.77;;;2.30;99.90;;;;;;4994937;28;20427;-82
2023/01/22 19:01:59;;;;;;;20.23;13.50;;;2.30;99.90;;;;;;4993624;28;20471;-82
2023/01/22 19:04:46;;;;;;;18.13;13.70;;;2.30;99.90;;;;;;4990376;28;20213;-83
2023/01/22 19:10:47;;;;;;;20.87;13.63;;;2.50;99.90;;;;;;4990913;28;20464;-84
2023/01/22 19:13:38;;;;;;;18.17;13.20;;;2.40;99.90;;;;;;4980054;29;20471;-83
2023/01/22 19:16:28;;;;;;;21.30;14.07;;;2.60;99.90;;;;;;4998225;28;20447;-83
2023/01/22 19:22:04;;;;;;;21.00;14.30;;;2.60;99.90;;;;;;4992052;28;20479;-84
2023/01/22 19:34:22;;;;;;;24.10;14.30;;;2.40;99.90;;;;;;4989567;28;20491;-83
2023/01/22 19:40:13;;;;;;;19.57;13.73;;;2.50;99.90;;;;;;4980489;28;20515;-83
2023/01/22 19:42:46;;;;;;;16.87;13.53;;;2.50;99.90;;;;;;4978292;28;20539;-83
2023/01/22 19:45:28;;;;;;;18.30;14.33;;;2.40;99.90;;;;;;4965012;28;20481;-83
2023/01/22 19:48:05;;;;;;;19.53;15.23;;;2.30;99.90;;;;;;4981165;28;20481;-82
2023/01/22 19:50:35;;;;;;;20.90;14.70;;;2.40;99.90;;;;;;4996554;28;20463;-83
2023/01/22 19:53:09;;;;;;;15.90;13.67;;;2.40;99.90;;;;;;4990807;28;20492;-82
2023/01/22 19:56:11;;;;;;;19.83;14.53;;;2.50;99.90;;;;;;4977361;29;20451;-84
2023/01/22 20:13:40;;;;;;;20.10;14.17;;;2.60;99.90;;;;;;4979698;28;20484;-83
2023/01/22 20:16:20;;;;;;;20.13;15.03;;;2.50;99.90;;;;;;4978104;28;20444;-83
2023/01/22 20:21:50;;;;;;;20.47;14.90;;;2.40;99.90;;;;;;4979629;28;20486;-83
2023/01/22 20:28:09;;;;;;;22.27;17.30;;;2.40;99.90;;;;;;4980340;28;20242;-83
2023/01/22 20:34:19;;;;;;;18.77;15.70;;;2.90;99.90;;;;;;4980960;28;20488;-84
2023/01/22 20:37:12;;;;;;;20.03;15.27;;;2.70;99.90;;;;;;4977119;28;20467;-82
2023/01/22 20:39:49;;;;;;;19.43;14.67;;;2.90;99.90;;;;;;4960862;28;20441;-84
2023/01/22 20:42:37;;;;;;;20.27;14.90;;;2.90;99.90;;;;;;4958655;29;20455;-84
2023/01/22 20:45:28;;;;;;;19.20;14.80;;;2.70;99.90;;;;;;4977559;28;20451;-84
2023/01/22 20:48:14;;;;;;;25.50;15.87;;;2.60;99.90;;;;;;4979277;28;20460;-83
2023/01/22 20:51:17;;;;;;;22.73;15.43;;;2.40;99.90;;;;;;4979300;28;20515;-83
2023/01/22 20:54:07;;;;;;;25.60;15.43;;;2.50;99.90;;;;;;4962449;29;20483;-83
2023/01/22 21:03:13;;;;;;;17.80;14.53;;;2.50;99.90;;;;;;4976548;28;20437;-84
2023/01/22 21:11:55;;;;;;;21.47;15.90;;;2.70;99.90;;;;;;4976534;28;20471;-83
2023/01/22 21:17:21;;;;;;;21.63;16.43;;;2.70;99.90;;;;;;4977371;29;20420;-83
2023/01/22 21:22:52;;;;;;;20.43;15.27;;;2.70;99.90;;;;;;4977773;28;20467;-83
2023/01/22 21:25:42;;;;;;;24.35;19.17;;;2.60;99.90;;;;;;4975690;28;20535;-83
2023/01/22 21:28:21;;;;;;;22.80;16.83;;;2.60;99.90;;;;;;4974864;28;20236;-83
2023/01/22 21:31:34;;;;;;;22.67;16.73;;;2.70;99.90;;;;;;4976875;28;20451;-84
2023/01/22 21:34:38;;;;;;;20.93;16.53;;;2.80;99.90;;;;;;4965625;29;20495;-84
2023/01/22 21:37:52;;;;;;;21.27;15.53;;;2.70;99.90;;;;;;4960506;28;20464;-83
2023/01/22 21:40:35;;;;;;;19.80;15.17;;;2.90;99.90;;;;;;4960023;28;20460;-83
2023/01/22 21:48:45;;;;;;;23.33;15.90;;;2.50;99.90;;;;;;4957905;29;20440;-84
2023/01/22 21:51:16;;;;;;;24.03;17.17;;;2.60;99.90;;;;;;4957833;29;20488;-84
2023/01/22 21:53:51;;;;;;;22.57;16.80;;;2.70;99.90;;;;;;4967280;28;20463;-83
2023/01/22 21:56:44;;;;;;;24.07;16.77;;;2.70;99.90;;;;;;4976766;28;20462;-83
2023/01/22 21:59:49;;;;;;;21.20;16.53;;;2.60;99.90;;;;;;4976951;29;20448;-84
2023/01/22 22:02:27;;;;;;;24.83;16.90;;;2.60;99.90;;;;;;4990106;28;20541;-82
2023/01/22 22:05:15;;;;;;;24.50;16.73;;;2.80;99.90;;;;;;4989399;28;20511;-82
2023/01/22 22:07:49;;;;;;;27.67;23.48;;;3.10;99.90;;;;;;4970832;28;20429;-82
2023/01/22 22:10:28;;;;;;;23.90;18.57;;;3.00;99.90;;;;;;4965695;28;20205;-83
2023/01/22 22:13:04;;;;;;;25.03;17.97;;;3.10;99.90;;;;;;4982189;28;20456;-84
2023/01/22 22:28:56;;;;;;;26.43;18.20;;;2.70;99.90;;;;;;4963748;28;20416;-81
2023/01/22 22:32:28;;;;;;;21.67;16.20;;;2.80;99.90;;;;;;4977476;28;20454;-82
2023/01/22 22:35:35;;;;;;;25.07;17.80;;;2.60;99.90;;;;;;4989446;28;20462;-83
2023/01/22 22:41:45;;;;;;;26.63;18.23;;;2.70;99.90;;;;;;4984188;28;20459;-84
2023/01/22 22:47:36;;;;;;;26.73;18.77;;;2.60;99.90;;;;;;4980149;29;20420;-84
2023/01/22 22:50:39;;;;;;;28.15;24.10;;;2.70;99.90;;;;;;4980472;28;20853;-84
2023/01/22 22:53:29;;;;;;;23.47;18.00;;;2.60;99.90;;;;;;4980683;29;20278;-84
2023/01/22 22:59:40;;;;;;;26.43;19.07;;;2.70;99.90;;;;;;4981142;28;20484;-85
2023/01/22 23:02:36;;;;;;;25.83;17.17;;;2.70;99.90;;;;;;4979954;29;20440;-84
2023/01/22 23:08:52;;;;;;;29.73;19.07;;;2.70;99.90;;;;;;4979990;29;20508;-84
2023/01/22 23:11:50;;;;;;;27.87;19.00;;;2.70;99.90;;;;;;4980691;28;20440;-84
2023/01/22 23:27:43;;;;;;;25.27;18.23;;;2.80;99.90;;;;;;4979357;28;20445;-84
2023/01/22 23:30:53;;;;;;;27.50;19.17;;;2.90;99.90;;;;;;4978542;28;20440;-84
2023/01/22 23:36:33;;;;;;;28.30;20.17;;;2.70;99.90;;;;;;4978079;28;20709;-85
2023/01/22 23:39:15;;;;;;;29.40;20.63;;;2.60;99.90;;;;;;4977228;29;20431;-85
2023/01/22 23:42:02;;;;;;;28.70;20.23;;;2.50;99.90;;;;;;4978666;28;20476;-85
2023/01/22 23:44:42;;;;;;;28.97;20.37;;;2.80;99.90;;;;;;4976363;28;20444;-84
2023/01/22 23:47:23;;;;;;;28.83;20.27;;;2.80;99.90;;;;;;4978706;28;20564;-84
2023/01/22 23:50:11;;;;;;;33.33;21.43;;;2.70;99.90;;;;;;4979155;28;20432;-83
2023/01/22 23:52:57;;;;;;;32.40;20.70;;;2.70;99.90;;;;;;4978998;29;20420;-84
2023/01/22 23:55:41;;;;;;;33.00;22.10;;;2.70;99.90;;;;;;4979211;28;20484;-84
2023/01/22 23:58:43;;;;;;;32.73;20.87;;;2.90;99.90;;;;;;4977658;28;20486;-84
